createdAt,value
2022-08-04T00:01:23.659Z,70.90
2022-08-04T00:03:59.865Z,70.90
2022-08-04T00:06:46.239Z,70.90
2022-08-04T00:09:20.371Z,70.90
2022-08-04T00:11:50.924Z,70.80
2022-08-04T00:14:22.134Z,70.90
2022-08-04T00:16:54.404Z,70.80
2022-08-04T00:19:30.885Z,70.60
2022-08-04T00:22:03.879Z,70.80
2022-08-04T00:24:33.166Z,70.40
2022-08-04T00:27:01.761Z,70.60
2022-08-04T00:29:30.051Z,70.50
2022-08-04T00:31:58.530Z,70.50
2022-08-04T00:34:29.697Z,71.00
2022-08-04T00:36:58.577Z,71.10
2022-08-04T00:39:27.781Z,71.00
2022-08-04T00:42:19.286Z,71.00
2022-08-04T00:45:01.123Z,70.90
2022-08-04T00:47:49.375Z,71.10
2022-08-04T00:50:25.300Z,71.20
2022-08-04T00:53:07.401Z,71.10
2022-08-04T00:55:54.266Z,71.10
2022-08-04T00:58:30.290Z,71.80
2022-08-04T01:01:02.376Z,71.10
2022-08-04T01:03:49.025Z,71.40
2022-08-04T01:06:35.602Z,71.50
2022-08-04T01:09:21.295Z,71.50
2022-08-04T01:12:09.665Z,71.50
2022-08-04T01:14:56.652Z,71.60
2022-08-04T01:17:29.595Z,71.50
2022-08-04T01:20:03.550Z,71.40
2022-08-04T01:23:09.227Z,71.30
2022-08-04T01:26:41.931Z,71.40
2022-08-04T01:29:11.053Z,71.90
2022-08-04T01:32:01.015Z,72.50
2022-08-04T01:34:31.761Z,72.50
2022-08-04T01:37:05.206Z,72.50
2022-08-04T01:39:42.518Z,72.60
2022-08-04T01:42:12.591Z,72.40
2022-08-04T01:44:51.078Z,72.50
2022-08-04T01:47:22.685Z,72.40
2022-08-04T01:49:52.896Z,72.80
2022-08-04T01:52:21.921Z,72.70
2022-08-04T01:54:51.700Z,72.80
2022-08-04T01:57:37.591Z,72.60
2022-08-04T02:00:10.807Z,72.70
2022-08-04T02:02:39.828Z,73.10
2022-08-04T02:05:11.736Z,73.00
2022-08-04T02:07:51.331Z,72.80
2022-08-04T02:10:30.353Z,72.80
2022-08-04T02:13:10.673Z,72.90
2022-08-04T02:15:54.537Z,72.90
2022-08-04T02:18:25.782Z,72.90
2022-08-04T02:20:58.950Z,72.90
2022-08-04T02:23:31.800Z,73.00
2022-08-04T02:26:02.957Z,73.00
2022-08-04T02:28:37.139Z,73.10
2022-08-04T02:31:16.638Z,73.20
2022-08-04T02:33:45.966Z,73.40
2022-08-04T02:36:22.101Z,73.50
2022-08-04T02:38:57.913Z,73.50
2022-08-04T02:41:29.174Z,73.50
2022-08-04T02:43:59.187Z,73.70
2022-08-04T02:46:30.135Z,73.60
2022-08-04T02:48:58.482Z,73.60
2022-08-04T02:51:30.637Z,73.40
2022-08-04T02:54:01.364Z,73.10
2022-08-04T02:56:33.118Z,73.40
2022-08-04T02:59:02.356Z,73.70
2022-08-04T03:01:32.862Z,73.80
2022-08-04T03:04:27.240Z,74.10
2022-08-04T03:07:21.772Z,74.20
2022-08-04T03:10:19.280Z,74.30
2022-08-04T03:13:38.835Z,74.60
2022-08-04T03:16:39.039Z,74.50
2022-08-04T03:19:44.589Z,74.40
2022-08-04T03:22:29.813Z,74.50
2022-08-04T03:25:25.074Z,74.30
2022-08-04T03:28:27.707Z,74.50
2022-08-04T03:31:32.092Z,74.90
2022-08-04T03:34:16.522Z,75.00
2022-08-04T03:37:12.723Z,75.20
2022-08-04T03:40:17.395Z,75.40
2022-08-04T03:43:59.105Z,75.30
2022-08-04T03:46:34.238Z,75.10
2022-08-04T03:49:39.798Z,75.30
2022-08-04T03:52:30.634Z,75.40
2022-08-04T03:55:31.774Z,75.20
2022-08-04T03:58:28.485Z,75.40
2022-08-04T04:01:13.975Z,75.10
2022-08-04T04:04:14.353Z,75.20
2022-08-04T04:07:14.843Z,75.50
2022-08-04T04:10:21.478Z,75.50
2022-08-04T04:13:22.780Z,75.70
2022-08-04T04:16:13.636Z,75.60
2022-08-04T04:19:06.288Z,75.80
2022-08-04T04:22:10.312Z,76.90
2022-08-04T04:24:56.130Z,76.60
2022-08-04T04:27:41.139Z,76.70
2022-08-04T04:30:14.221Z,77.10
2022-08-04T04:33:19.979Z,77.20
2022-08-04T04:36:01.009Z,77.80
2022-08-04T04:38:58.189Z,77.90
2022-08-04T04:41:38.129Z,78.00
2022-08-04T04:44:30.461Z,78.30
2022-08-04T04:47:09.307Z,78.40
2022-08-04T04:49:52.965Z,78.50
2022-08-04T04:52:28.149Z,78.70
2022-08-04T04:55:05.574Z,79.00
2022-08-04T04:57:54.251Z,79.40
2022-08-04T05:00:27.271Z,79.60
2022-08-04T05:03:13.859Z,79.90
2022-08-04T05:05:59.721Z,80.10
2022-08-04T05:08:57.898Z,80.30
2022-08-04T05:11:59.604Z,80.60
2022-08-04T05:14:41.211Z,80.50
2022-08-04T05:17:18.045Z,80.50
2022-08-04T05:19:58.346Z,80.30
2022-08-04T05:22:30.622Z,80.40
2022-08-04T05:25:05.557Z,80.70
2022-08-04T05:27:40.850Z,80.90
2022-08-04T05:30:11.819Z,81.50
2022-08-04T05:32:47.828Z,81.10
2022-08-04T05:35:47.847Z,81.30
2022-08-04T05:38:15.493Z,81.40
2022-08-04T05:40:45.559Z,81.30
2022-08-04T05:43:16.817Z,81.20
2022-08-04T05:45:48.183Z,80.90
2022-08-04T05:48:16.427Z,81.00
2022-08-04T05:50:46.146Z,81.10
2022-08-04T05:53:15.103Z,81.20
2022-08-04T05:55:57.557Z,81.20
2022-08-04T05:58:31.362Z,81.50
2022-08-04T06:01:01.825Z,81.00
2022-08-04T06:03:31.851Z,80.70
2022-08-04T06:06:00.974Z,81.00
2022-08-04T06:08:31.349Z,80.90
2022-08-04T06:11:05.090Z,80.50
2022-08-04T06:13:49.610Z,80.50
2022-08-04T06:16:30.339Z,80.00
2022-08-04T06:19:59.942Z,79.40
2022-08-04T06:21:51.950Z,79.20
2022-08-04T06:24:24.624Z,79.40
2022-08-04T06:26:53.665Z,79.60
2022-08-04T06:29:28.308Z,79.10
2022-08-04T06:32:27.156Z,78.40
2022-08-04T06:34:53.119Z,78.10
2022-08-04T06:37:41.552Z,78.10
2022-08-04T06:40:29.409Z,76.80
2022-08-04T06:43:00.602Z,77.10
2022-08-04T06:45:30.691Z,76.60
2022-08-04T06:48:00.595Z,77.80
2022-08-04T06:51:27.333Z,76.80
2022-08-04T06:53:17.983Z,76.40
2022-08-04T06:55:49.378Z,76.30
2022-08-04T06:58:18.657Z,76.70
2022-08-04T07:00:49.549Z,75.70
2022-08-04T07:03:19.921Z,74.90
2022-08-04T07:05:49.266Z,74.90
2022-08-04T07:08:18.057Z,74.60
2022-08-04T07:10:47.473Z,73.90
2022-08-04T07:13:16.751Z,72.60
2022-08-04T07:15:46.517Z,70.50
2022-08-04T07:18:16.507Z,68.90
2022-08-04T07:20:45.462Z,67.50
2022-08-04T07:23:17.703Z,66.10
2022-08-04T07:26:01.192Z,65.10
2022-08-04T07:28:41.191Z,63.70
2022-08-04T07:31:32.928Z,63.40
2022-08-04T07:34:17.708Z,62.90
2022-08-04T07:36:55.126Z,63.10
2022-08-04T07:39:28.031Z,61.70
2022-08-04T07:41:58.798Z,62.40
2022-08-04T07:44:27.241Z,61.20
2022-08-04T07:46:55.958Z,61.40
2022-08-04T07:49:54.895Z,59.90
2022-08-04T07:52:15.237Z,59.60
2022-08-04T07:54:44.527Z,57.80
2022-08-04T07:57:28.990Z,56.60
2022-08-04T08:00:00.911Z,53.90
2022-08-04T08:02:30.077Z,52.20
2022-08-04T08:04:59.982Z,50.90
2022-08-04T08:07:28.232Z,50.50
2022-08-04T08:09:56.336Z,48.50
2022-08-04T08:12:36.284Z,48.90
2022-08-04T08:15:15.886Z,46.80
2022-08-04T08:17:58.696Z,48.40
2022-08-04T08:20:31.800Z,46.10
2022-08-04T08:23:01.721Z,45.10
2022-08-04T08:25:31.578Z,44.10
2022-08-04T08:28:00.013Z,44.40
2022-08-04T08:30:31.857Z,44.30
2022-08-04T08:33:05.529Z,44.00
2022-08-04T08:35:54.184Z,42.50
2022-08-04T08:38:38.826Z,42.20
2022-08-04T08:41:46.333Z,42.50
2022-08-04T08:44:58.191Z,41.10
2022-08-04T08:48:00.099Z,41.50
2022-08-04T08:50:55.878Z,42.10
2022-08-04T08:53:45.319Z,42.40
2022-08-04T08:56:31.427Z,41.90
2022-08-04T08:59:17.802Z,41.80
2022-08-04T09:01:59.455Z,41.20
2022-08-04T09:04:58.793Z,40.80
2022-08-04T09:07:46.189Z,40.00
2022-08-04T09:10:21.526Z,40.10
2022-08-04T09:12:54.904Z,40.70
2022-08-04T09:15:30.812Z,39.20
2022-08-04T09:18:08.643Z,39.40
2022-08-04T09:20:41.851Z,38.80
2022-08-04T09:23:19.734Z,39.10
2022-08-04T09:25:58.575Z,38.00
2022-08-04T09:28:52.513Z,38.90
2022-08-04T09:31:21.986Z,39.60
2022-08-04T09:34:02.728Z,40.30
2022-08-04T09:36:36.842Z,39.00
2022-08-04T09:39:11.449Z,38.90
2022-08-04T09:41:52.900Z,38.90
2022-08-04T09:44:50.860Z,37.80
2022-08-04T09:47:24.101Z,38.90
2022-08-04T09:50:01.072Z,39.70
2022-08-04T09:52:38.291Z,40.40
2022-08-04T09:55:14.687Z,39.20
2022-08-04T09:57:59.184Z,39.20
2022-08-04T10:00:41.077Z,40.40
2022-08-04T10:03:17.518Z,40.20
2022-08-04T10:06:01.132Z,40.00
2022-08-04T10:08:50.525Z,39.60
2022-08-04T10:11:29.915Z,38.80
2022-08-04T10:14:07.083Z,39.60
2022-08-04T10:16:42.069Z,40.10
2022-08-04T10:19:24.096Z,39.20
2022-08-04T10:22:29.203Z,39.40
2022-08-04T10:26:02.767Z,39.40
2022-08-04T10:28:00.140Z,40.00
2022-08-04T10:30:33.147Z,39.00
2022-08-04T10:33:10.868Z,39.30
2022-08-04T10:35:46.462Z,39.70
2022-08-04T10:38:26.787Z,39.60
2022-08-04T10:41:01.835Z,39.70
2022-08-04T10:43:43.894Z,38.80
2022-08-04T10:46:18.285Z,39.70
2022-08-04T10:48:55.091Z,38.70
2022-08-04T10:51:28.955Z,39.30
2022-08-04T10:54:01.944Z,39.40
2022-08-04T10:56:36.058Z,39.00
2022-08-04T10:59:09.176Z,39.20
2022-08-04T11:02:00.839Z,38.50
2022-08-04T11:04:42.373Z,38.90
2022-08-04T11:07:12.825Z,39.00
2022-08-04T11:09:43.852Z,39.20
2022-08-04T11:12:17.348Z,39.20
2022-08-04T11:14:50.529Z,39.40
2022-08-04T11:17:25.582Z,40.50
2022-08-04T11:20:18.562Z,40.30
2022-08-04T11:22:59.403Z,40.00
2022-08-04T11:25:33.707Z,40.10
2022-08-04T11:28:07.430Z,40.00
2022-08-04T11:30:47.181Z,39.50
2022-08-04T11:33:24.484Z,39.60
2022-08-04T11:36:00.570Z,40.00
2022-08-04T11:38:33.776Z,40.10
2022-08-04T11:41:11.027Z,39.70
2022-08-04T11:44:02.915Z,39.00
2022-08-04T11:46:40.821Z,39.30
2022-08-04T11:49:17.432Z,40.10
2022-08-04T11:51:46.397Z,39.70
2022-08-04T11:54:15.855Z,39.00
2022-08-04T11:56:44.248Z,39.40
2022-08-04T11:59:12.307Z,39.70
2022-08-04T12:01:57.586Z,40.50
2022-08-04T12:04:38.730Z,39.80
2022-08-04T12:07:40.638Z,39.80
2022-08-04T12:10:15.235Z,40.00
2022-08-04T12:12:52.239Z,39.70
2022-08-04T12:15:25.014Z,39.60
2022-08-04T12:17:59.000Z,39.10
2022-08-04T12:20:41.801Z,39.70
2022-08-04T12:23:18.519Z,40.10
2022-08-04T12:25:55.667Z,39.30
2022-08-04T12:28:52.429Z,39.70
2022-08-04T12:31:25.056Z,40.50
2022-08-04T12:34:04.167Z,41.20
2022-08-04T12:36:41.171Z,40.30
2022-08-04T12:39:13.589Z,40.00
2022-08-04T12:41:46.611Z,39.90
2022-08-04T12:44:36.365Z,39.90
2022-08-04T12:47:28.331Z,40.20
2022-08-04T12:50:00.933Z,39.90
2022-08-04T12:52:59.271Z,39.70
2022-08-04T12:55:24.916Z,40.00
2022-08-04T12:57:54.640Z,39.90
2022-08-04T13:00:33.205Z,40.20
2022-08-04T13:03:10.466Z,39.70
2022-08-04T13:05:42.023Z,39.90
2022-08-04T13:08:12.595Z,40.00
2022-08-04T13:10:45.227Z,39.70
2022-08-04T13:13:16.921Z,40.30
2022-08-04T13:15:56.453Z,39.50
2022-08-04T13:18:30.350Z,39.60
2022-08-04T13:21:20.659Z,39.70
2022-08-04T13:24:19.187Z,40.00
2022-08-04T13:29:59.556Z,39.90
2022-08-04T13:30:25.173Z,40.10
2022-08-04T13:32:32.452Z,40.90
2022-08-04T13:35:05.237Z,40.00
2022-08-04T13:37:39.599Z,39.90
2022-08-04T13:40:15.876Z,39.10
2022-08-04T13:42:48.797Z,39.50
2022-08-04T13:45:23.024Z,39.70
2022-08-04T13:47:59.628Z,39.80
2022-08-04T13:50:48.831Z,39.70
2022-08-04T13:53:22.063Z,39.40
2022-08-04T13:56:01.037Z,39.50
2022-08-04T13:58:40.485Z,39.40
2022-08-04T14:01:16.627Z,38.70
2022-08-04T14:03:58.441Z,38.50
2022-08-04T14:06:30.920Z,39.00
2022-08-04T14:09:02.330Z,38.80
2022-08-04T14:12:09.986Z,38.20
2022-08-04T14:14:28.114Z,38.20
2022-08-04T14:17:04.594Z,38.00
2022-08-04T14:19:52.264Z,37.40
2022-08-04T14:22:31.531Z,37.70
2022-08-04T14:25:01.394Z,37.50
2022-08-04T14:27:41.216Z,38.10
2022-08-04T14:30:21.184Z,37.40
2022-08-04T14:32:59.339Z,37.50
2022-08-04T14:35:59.162Z,37.10
2022-08-04T14:38:43.611Z,37.30
2022-08-04T14:41:12.627Z,37.80
2022-08-04T14:43:47.135Z,38.30
2022-08-04T14:46:15.863Z,37.70
2022-08-04T14:49:02.792Z,37.90
2022-08-04T14:51:36.903Z,38.20
2022-08-04T14:54:08.967Z,37.70
2022-08-04T14:56:47.853Z,37.80
2022-08-04T14:59:17.788Z,37.70
2022-08-04T15:02:00.289Z,37.50
2022-08-04T15:04:31.279Z,38.00
2022-08-04T15:07:00.510Z,37.80
2022-08-04T15:09:29.417Z,38.00
2022-08-04T15:11:57.706Z,38.10
2022-08-04T15:14:36.776Z,38.10
2022-08-04T15:17:12.194Z,37.90
2022-08-04T15:19:56.350Z,37.30
2022-08-04T15:22:24.946Z,38.10
2022-08-04T15:24:55.609Z,38.60
2022-08-04T15:27:27.631Z,37.70
2022-08-04T15:30:02.003Z,37.30
2022-08-04T15:32:33.197Z,37.80
2022-08-04T15:35:04.159Z,38.00
2022-08-04T15:37:40.310Z,38.10
2022-08-04T15:40:14.420Z,37.90
2022-08-04T15:42:48.084Z,37.80
2022-08-04T15:46:02.247Z,38.10
2022-08-04T15:48:33.215Z,37.90
2022-08-04T15:51:04.951Z,38.20
2022-08-04T15:54:01.789Z,38.30
2022-08-04T15:56:48.409Z,38.50
2022-08-04T16:00:01.026Z,38.80
2022-08-04T16:02:43.526Z,38.60
2022-08-04T16:05:37.011Z,39.00
2022-08-04T16:08:18.451Z,38.00
2022-08-04T16:10:48.757Z,38.10
2022-08-04T16:13:19.793Z,38.40
2022-08-04T16:15:53.578Z,38.70
2022-08-04T16:18:39.440Z,39.10
2022-08-04T16:21:17.721Z,39.40
2022-08-04T16:24:02.222Z,39.40
2022-08-04T16:26:56.927Z,39.30
2022-08-04T16:29:37.790Z,39.40
2022-08-04T16:32:10.689Z,39.20
2022-08-04T16:34:54.649Z,39.50
2022-08-04T16:37:32.267Z,39.50
2022-08-04T16:40:35.802Z,39.50
2022-08-04T16:43:07.288Z,39.40
2022-08-04T16:45:53.820Z,39.40
2022-08-04T16:48:23.453Z,39.10
2022-08-04T16:51:05.185Z,39.30
2022-08-04T16:53:53.106Z,39.80
2022-08-04T16:56:33.375Z,39.40
2022-08-04T16:59:07.906Z,39.20
2022-08-04T17:01:36.917Z,39.20
2022-08-04T17:04:06.928Z,39.20
2022-08-04T17:06:38.193Z,39.40
2022-08-04T17:09:08.239Z,39.50
2022-08-04T17:11:36.350Z,39.80
2022-08-04T17:14:06.486Z,40.70
2022-08-04T17:16:36.965Z,39.70
2022-08-04T17:19:06.561Z,40.00
2022-08-04T17:21:37.821Z,40.10
2022-08-04T17:24:15.997Z,40.20
2022-08-04T17:29:43.899Z,40.60
2022-08-04T17:32:17.159Z,40.70
2022-08-04T17:34:49.159Z,41.20
2022-08-04T17:37:41.163Z,41.80
2022-08-04T17:40:09.990Z,41.70
2022-08-04T17:42:40.263Z,42.20
2022-08-04T17:48:00.662Z,41.90
2022-08-04T17:50:35.873Z,41.80
2022-08-04T17:53:11.688Z,42.30
2022-08-04T17:55:42.898Z,42.20
2022-08-04T17:58:21.254Z,42.80
2022-08-04T18:01:23.682Z,43.10
2022-08-04T18:03:52.961Z,43.90
2022-08-04T18:06:22.875Z,43.20
2022-08-04T18:08:59.358Z,43.20
2022-08-04T18:11:53.779Z,44.00
2022-08-04T18:18:19.792Z,44.20
2022-08-04T18:20:00.320Z,44.80
2022-08-04T18:22:29.815Z,44.30
2022-08-04T18:24:59.249Z,45.00
2022-08-04T18:27:30.011Z,45.50
2022-08-04T18:30:34.597Z,45.70
2022-08-04T18:33:04.582Z,47.00
2022-08-04T18:36:33.181Z,47.00
2022-08-04T18:38:25.712Z,46.50
2022-08-04T18:40:59.100Z,46.80
2022-08-04T18:43:30.280Z,46.70
2022-08-04T18:46:14.821Z,47.20
2022-08-04T18:48:45.209Z,48.00
2022-08-04T18:51:22.988Z,48.50
2022-08-04T18:53:55.432Z,47.70
2022-08-04T18:56:32.699Z,48.70
2022-08-04T18:59:03.057Z,49.50
2022-08-04T19:02:12.474Z,50.00
2022-08-04T19:04:32.854Z,50.10
2022-08-04T19:09:52.270Z,50.20
2022-08-04T19:12:27.400Z,50.80
2022-08-04T19:14:58.814Z,51.10
2022-08-04T19:17:57.238Z,51.50
2022-08-04T19:20:26.647Z,51.70
2022-08-04T19:24:27.716Z,51.90
2022-08-04T19:26:02.116Z,52.20
2022-08-04T19:28:36.944Z,52.20
2022-08-04T19:31:06.903Z,52.10
2022-08-04T19:33:58.814Z,51.90
2022-08-04T19:36:27.816Z,50.00
2022-08-04T19:38:57.472Z,51.10
2022-08-04T19:41:26.506Z,52.30
2022-08-04T19:43:56.750Z,49.80
2022-08-04T19:46:28.468Z,51.60
2022-08-04T19:48:59.350Z,52.10
2022-08-04T19:51:30.018Z,52.10
2022-08-04T19:54:04.041Z,52.10
2022-08-04T19:56:40.472Z,53.10
2022-08-04T19:59:11.534Z,53.30
2022-08-04T20:01:45.103Z,53.20
2022-08-04T20:04:14.291Z,53.50
2022-08-04T20:06:42.971Z,53.30
2022-08-04T20:09:26.001Z,53.50
2022-08-04T20:11:56.391Z,52.40
2022-08-04T20:17:17.818Z,51.50
2022-08-04T20:19:51.408Z,51.50
2022-08-04T20:22:50.710Z,50.80
2022-08-04T20:25:35.736Z,50.70
2022-08-04T20:28:00.875Z,52.20
2022-08-04T20:30:33.136Z,52.60
2022-08-04T20:33:04.201Z,52.40
2022-08-04T20:36:00.747Z,51.00
2022-08-04T20:38:33.766Z,51.50
2022-08-04T20:41:02.909Z,51.90
2022-08-04T20:43:31.594Z,50.80
2022-08-04T20:46:01.328Z,51.30
2022-08-04T20:48:30.005Z,51.40
2022-08-04T20:51:02.081Z,52.00
2022-08-04T20:53:46.733Z,51.80
2022-08-04T20:56:19.327Z,51.90
2022-08-04T20:58:59.340Z,51.70
2022-08-04T21:01:30.631Z,51.10
2022-08-04T21:04:27.648Z,51.20
2022-08-04T21:06:58.090Z,51.20
2022-08-04T21:09:38.273Z,51.40
2022-08-04T21:12:17.034Z,51.40
2022-08-04T21:15:00.339Z,51.50
2022-08-04T21:17:57.659Z,51.60
2022-08-04T21:20:28.964Z,52.40
2022-08-04T21:22:59.492Z,52.30
2022-08-04T21:25:30.420Z,52.90
2022-08-04T21:28:04.330Z,52.80
2022-08-04T21:30:52.287Z,53.40
2022-08-04T21:33:23.041Z,53.60
2022-08-04T21:35:54.183Z,53.60
2022-08-04T21:38:28.007Z,53.70
2022-08-04T21:40:57.413Z,53.20
2022-08-04T21:43:28.756Z,53.30
2022-08-04T21:46:04.061Z,53.20
2022-08-04T21:48:34.498Z,52.40
2022-08-04T21:51:21.689Z,52.50
2022-08-04T21:54:07.575Z,52.70
2022-08-04T21:56:36.245Z,52.80
2022-08-04T22:01:55.495Z,53.90
2022-08-04T22:04:25.110Z,53.50
2022-08-04T22:06:53.417Z,51.80
2022-08-04T22:09:22.432Z,52.00
2022-08-04T22:11:52.132Z,52.40
2022-08-04T22:14:29.517Z,53.20
2022-08-04T22:17:04.125Z,53.60
2022-08-04T22:19:39.968Z,53.10
2022-08-04T22:22:25.182Z,53.80
2022-08-04T22:24:55.197Z,52.80
2022-08-04T22:27:47.526Z,52.90
2022-08-04T22:30:19.510Z,53.90
2022-08-04T22:32:48.535Z,53.30
2022-08-04T22:35:35.427Z,53.40
2022-08-04T22:38:21.311Z,53.40
2022-08-04T22:40:59.045Z,54.00
2022-08-04T22:43:32.602Z,54.30
2022-08-04T22:46:03.618Z,53.50
2022-08-04T22:48:32.738Z,53.60
2022-08-04T22:51:02.868Z,53.70
2022-08-04T22:53:32.244Z,54.00
2022-08-04T22:56:09.327Z,54.10
2022-08-04T22:58:45.331Z,54.60
2022-08-04T23:01:19.666Z,54.90
2022-08-04T23:03:55.962Z,54.70
2022-08-04T23:06:28.720Z,55.30
2022-08-04T23:08:57.471Z,55.20
2022-08-04T23:11:34.804Z,55.20
2022-08-04T23:14:04.592Z,55.00
2022-08-04T23:16:32.898Z,55.30
2022-08-04T23:19:09.916Z,55.50
2022-08-04T23:21:47.679Z,55.20
2022-08-04T23:24:16.190Z,55.40
2022-08-04T23:26:44.442Z,55.60
2022-08-04T23:29:12.795Z,55.90
2022-08-04T23:31:59.613Z,55.70
2022-08-04T23:34:29.374Z,55.80
2022-08-04T23:36:59.439Z,55.60
2022-08-04T23:40:04.218Z,55.90
2022-08-04T23:42:20.953Z,56.10
2022-08-04T23:44:49.908Z,56.20
2022-08-04T23:48:15.872Z,56.10
2022-08-04T23:50:07.289Z,56.20
2022-08-04T23:52:36.843Z,56.10
2022-08-04T23:55:07.386Z,56.50
2022-08-04T23:58:05.454Z,56.70
